sensor_id;sensor_type;location;lat;lon;timestamp;P1;durP1;ratioP1;P2;durP2;ratioP2
7729;SDS011;3908;52.310;7.230;2023-02-19T00:02:17;15.10;;;10.47;;
7729;SDS011;3908;52.310;7.230;2023-02-19T00:05:04;18.47;;;11.13;;
7729;SDS011;3908;52.310;7.230;2023-02-19T00:07:53;17.70;;;10.03;;
7729;SDS011;3908;52.310;7.230;2023-02-19T00:10:42;18.43;;;10.40;;
7729;SDS011;3908;52.310;7.230;2023-02-19T00:13:30;19.73;;;8.93;;
7729;SDS011;3908;52.310;7.230;2023-02-19T00:16:23;18.43;;;9.53;;
7729;SDS011;3908;52.310;7.230;2023-02-19T00:19:12;17.03;;;9.30;;
7729;SDS011;3908;52.310;7.230;2023-02-19T00:22:01;17.20;;;9.60;;
7729;SDS011;3908;52.310;7.230;2023-02-19T00:24:48;20.53;;;10.43;;
7729;SDS011;3908;52.310;7.230;2023-02-19T00:27:35;23.03;;;11.73;;
7729;SDS011;3908;52.310;7.230;2023-02-19T00:30:23;22.93;;;12.07;;
7729;SDS011;3908;52.310;7.230;2023-02-19T00:33:10;19.60;;;11.40;;
7729;SDS011;3908;52.310;7.230;2023-02-19T00:35:58;25.87;;;12.83;;
7729;SDS011;3908;52.310;7.230;2023-02-19T00:38:46;25.90;;;12.23;;
7729;SDS011;3908;52.310;7.230;2023-02-19T00:41:33;25.90;;;13.17;;
7729;SDS011;3908;52.310;7.230;2023-02-19T00:44:20;23.23;;;12.70;;
7729;SDS011;3908;52.310;7.230;2023-02-19T00:47:08;22.77;;;13.23;;
7729;SDS011;3908;52.310;7.230;2023-02-19T00:49:55;30.43;;;12.33;;
7729;SDS011;3908;52.310;7.230;2023-02-19T00:52:42;23.67;;;12.40;;
7729;SDS011;3908;52.310;7.230;2023-02-19T00:55:29;24.90;;;13.40;;
7729;SDS011;3908;52.310;7.230;2023-02-19T00:58:16;25.20;;;13.13;;
7729;SDS011;3908;52.310;7.230;2023-02-19T01:01:03;24.30;;;12.97;;
7729;SDS011;3908;52.310;7.230;2023-02-19T01:03:53;27.60;;;13.60;;
7729;SDS011;3908;52.310;7.230;2023-02-19T01:06:40;22.60;;;12.83;;
7729;SDS011;3908;52.310;7.230;2023-02-19T01:09:27;24.23;;;12.83;;
7729;SDS011;3908;52.310;7.230;2023-02-19T01:12:14;27.97;;;14.47;;
7729;SDS011;3908;52.310;7.230;2023-02-19T01:15:01;27.43;;;14.17;;
7729;SDS011;3908;52.310;7.230;2023-02-19T01:17:48;24.47;;;13.70;;
7729;SDS011;3908;52.310;7.230;2023-02-19T01:20:38;24.10;;;13.20;;
7729;SDS011;3908;52.310;7.230;2023-02-19T01:23:25;26.60;;;14.03;;
7729;SDS011;3908;52.310;7.230;2023-02-19T01:26:13;31.53;;;15.70;;
7729;SDS011;3908;52.310;7.230;2023-02-19T01:29:02;26.50;;;13.57;;
7729;SDS011;3908;52.310;7.230;2023-02-19T01:31:49;32.83;;;15.50;;
7729;SDS011;3908;52.310;7.230;2023-02-19T01:34:36;27.37;;;14.87;;
7729;SDS011;3908;52.310;7.230;2023-02-19T01:37:24;35.97;;;15.73;;
7729;SDS011;3908;52.310;7.230;2023-02-19T01:40:11;33.10;;;16.90;;
7729;SDS011;3908;52.310;7.230;2023-02-19T01:42:58;39.33;;;17.83;;
7729;SDS011;3908;52.310;7.230;2023-02-19T01:45:45;36.23;;;16.70;;
7729;SDS011;3908;52.310;7.230;2023-02-19T01:48:33;36.77;;;17.33;;
7729;SDS011;3908;52.310;7.230;2023-02-19T01:51:23;35.07;;;17.33;;
7729;SDS011;3908;52.310;7.230;2023-02-19T01:54:11;36.87;;;16.80;;
7729;SDS011;3908;52.310;7.230;2023-02-19T01:57:02;36.70;;;16.43;;
7729;SDS011;3908;52.310;7.230;2023-02-19T01:59:54;35.30;;;16.00;;
7729;SDS011;3908;52.310;7.230;2023-02-19T02:02:44;31.30;;;16.07;;
7729;SDS011;3908;52.310;7.230;2023-02-19T02:05:38;35.83;;;16.20;;
7729;SDS011;3908;52.310;7.230;2023-02-19T02:08:32;33.07;;;17.30;;
7729;SDS011;3908;52.310;7.230;2023-02-19T02:11:39;39.90;;;17.87;;
7729;SDS011;3908;52.310;7.230;2023-02-19T02:14:32;32.40;;;16.53;;
7729;SDS011;3908;52.310;7.230;2023-02-19T02:17:23;39.20;;;16.33;;
7729;SDS011;3908;52.310;7.230;2023-02-19T02:20:20;42.43;;;16.90;;
7729;SDS011;3908;52.310;7.230;2023-02-19T02:23:24;31.33;;;17.50;;
7729;SDS011;3908;52.310;7.230;2023-02-19T02:26:31;35.17;;;16.57;;
7729;SDS011;3908;52.310;7.230;2023-02-19T02:29:35;38.00;;;16.37;;
7729;SDS011;3908;52.310;7.230;2023-02-19T02:32:42;30.13;;;16.17;;
7729;SDS011;3908;52.310;7.230;2023-02-19T02:35:38;38.83;;;16.53;;
7729;SDS011;3908;52.310;7.230;2023-02-19T02:38:30;34.87;;;15.97;;
7729;SDS011;3908;52.310;7.230;2023-02-19T02:41:19;24.87;;;13.40;;
7729;SDS011;3908;52.310;7.230;2023-02-19T02:44:06;21.37;;;13.13;;
7729;SDS011;3908;52.310;7.230;2023-02-19T02:46:55;27.37;;;13.53;;
7729;SDS011;3908;52.310;7.230;2023-02-19T02:49:42;22.57;;;12.87;;
7729;SDS011;3908;52.310;7.230;2023-02-19T02:52:38;29.17;;;13.37;;
7729;SDS011;3908;52.310;7.230;2023-02-19T02:55:47;24.13;;;13.23;;
7729;SDS011;3908;52.310;7.230;2023-02-19T02:58:37;24.00;;;12.90;;
7729;SDS011;3908;52.310;7.230;2023-02-19T03:01:26;25.23;;;12.73;;
7729;SDS011;3908;52.310;7.230;2023-02-19T03:04:34;20.50;;;12.37;;
7729;SDS011;3908;52.310;7.230;2023-02-19T03:07:50;25.07;;;12.53;;
7729;SDS011;3908;52.310;7.230;2023-02-19T03:10:41;24.50;;;12.27;;
7729;SDS011;3908;52.310;7.230;2023-02-19T03:13:32;20.13;;;11.20;;
7729;SDS011;3908;52.310;7.230;2023-02-19T03:16:40;25.30;;;12.13;;
7729;SDS011;3908;52.310;7.230;2023-02-19T03:19:46;17.37;;;10.77;;
7729;SDS011;3908;52.310;7.230;2023-02-19T03:22:38;24.77;;;11.33;;
7729;SDS011;3908;52.310;7.230;2023-02-19T03:25:29;19.53;;;11.67;;
7729;SDS011;3908;52.310;7.230;2023-02-19T03:28:37;18.23;;;10.70;;
7729;SDS011;3908;52.310;7.230;2023-02-19T03:31:46;17.80;;;10.37;;
7729;SDS011;3908;52.310;7.230;2023-02-19T03:34:38;19.13;;;10.90;;
7729;SDS011;3908;52.310;7.230;2023-02-19T03:37:30;22.53;;;9.90;;
7729;SDS011;3908;52.310;7.230;2023-02-19T03:40:20;18.70;;;10.40;;
7729;SDS011;3908;52.310;7.230;2023-02-19T03:43:15;17.17;;;9.77;;
7729;SDS011;3908;52.310;7.230;2023-02-19T03:46:08;23.10;;;10.90;;
7729;SDS011;3908;52.310;7.230;2023-02-19T03:49:00;27.33;;;11.57;;
7729;SDS011;3908;52.310;7.230;2023-02-19T03:51:53;19.20;;;10.90;;
7729;SDS011;3908;52.310;7.230;2023-02-19T03:54:49;18.67;;;10.83;;
7729;SDS011;3908;52.310;7.230;2023-02-19T03:57:45;19.33;;;11.60;;
7729;SDS011;3908;52.310;7.230;2023-02-19T04:00:39;17.20;;;10.37;;
7729;SDS011;3908;52.310;7.230;2023-02-19T04:03:34;20.30;;;10.33;;
7729;SDS011;3908;52.310;7.230;2023-02-19T04:06:26;17.30;;;9.80;;
7729;SDS011;3908;52.310;7.230;2023-02-19T04:09:14;15.40;;;9.30;;
7729;SDS011;3908;52.310;7.230;2023-02-19T04:12:04;19.17;;;9.50;;
7729;SDS011;3908;52.310;7.230;2023-02-19T04:14:52;20.17;;;9.03;;
7729;SDS011;3908;52.310;7.230;2023-02-19T04:17:46;15.60;;;8.03;;
7729;SDS011;3908;52.310;7.230;2023-02-19T04:20:40;18.23;;;8.73;;
7729;SDS011;3908;52.310;7.230;2023-02-19T04:23:29;15.60;;;8.03;;
7729;SDS011;3908;52.310;7.230;2023-02-19T04:26:22;18.50;;;7.77;;
7729;SDS011;3908;52.310;7.230;2023-02-19T04:29:09;14.60;;;8.47;;
7729;SDS011;3908;52.310;7.230;2023-02-19T04:31:56;13.30;;;7.60;;
7729;SDS011;3908;52.310;7.230;2023-02-19T04:34:45;15.57;;;7.60;;
7729;SDS011;3908;52.310;7.230;2023-02-19T04:37:32;13.37;;;6.93;;
7729;SDS011;3908;52.310;7.230;2023-02-19T04:40:19;11.20;;;6.73;;
7729;SDS011;3908;52.310;7.230;2023-02-19T04:43:06;12.97;;;6.90;;
7729;SDS011;3908;52.310;7.230;2023-02-19T04:45:53;11.40;;;6.27;;
7729;SDS011;3908;52.310;7.230;2023-02-19T04:48:40;9.73;;;6.20;;
7729;SDS011;3908;52.310;7.230;2023-02-19T04:51:29;10.63;;;7.47;;
7729;SDS011;3908;52.310;7.230;2023-02-19T04:54:16;10.30;;;5.80;;
7729;SDS011;3908;52.310;7.230;2023-02-19T04:57:03;11.67;;;6.60;;
7729;SDS011;3908;52.310;7.230;2023-02-19T04:59:51;18.00;;;7.10;;
7729;SDS011;3908;52.310;7.230;2023-02-19T05:02:38;18.53;;;7.13;;
7729;SDS011;3908;52.310;7.230;2023-02-19T05:05:25;14.60;;;6.97;;
7729;SDS011;3908;52.310;7.230;2023-02-19T05:08:13;16.00;;;6.77;;
7729;SDS011;3908;52.310;7.230;2023-02-19T05:11:00;14.33;;;7.13;;
7729;SDS011;3908;52.310;7.230;2023-02-19T05:13:49;12.83;;;6.40;;
7729;SDS011;3908;52.310;7.230;2023-02-19T05:16:36;13.03;;;7.33;;
7729;SDS011;3908;52.310;7.230;2023-02-19T05:19:23;17.13;;;6.90;;
7729;SDS011;3908;52.310;7.230;2023-02-19T05:22:10;18.47;;;7.23;;
7729;SDS011;3908;52.310;7.230;2023-02-19T05:24:58;13.30;;;6.90;;
7729;SDS011;3908;52.310;7.230;2023-02-19T05:27:45;15.67;;;6.70;;
7729;SDS011;3908;52.310;7.230;2023-02-19T05:30:32;17.90;;;7.47;;
7729;SDS011;3908;52.310;7.230;2023-02-19T05:33:21;14.13;;;6.60;;
7729;SDS011;3908;52.310;7.230;2023-02-19T05:36:10;14.73;;;7.10;;
7729;SDS011;3908;52.310;7.230;2023-02-19T05:38:58;16.13;;;7.27;;
7729;SDS011;3908;52.310;7.230;2023-02-19T05:41:47;15.03;;;7.30;;
7729;SDS011;3908;52.310;7.230;2023-02-19T05:44:34;15.67;;;7.67;;
7729;SDS011;3908;52.310;7.230;2023-02-19T05:47:21;16.03;;;6.97;;
7729;SDS011;3908;52.310;7.230;2023-02-19T05:50:08;15.53;;;6.67;;
7729;SDS011;3908;52.310;7.230;2023-02-19T05:52:55;17.47;;;7.37;;
7729;SDS011;3908;52.310;7.230;2023-02-19T05:55:42;13.13;;;6.17;;
7729;SDS011;3908;52.310;7.230;2023-02-19T05:58:30;15.50;;;5.97;;
7729;SDS011;3908;52.310;7.230;2023-02-19T06:01:17;14.43;;;6.27;;
7729;SDS011;3908;52.310;7.230;2023-02-19T06:04:05;11.97;;;6.33;;
7729;SDS011;3908;52.310;7.230;2023-02-19T06:06:52;10.50;;;5.50;;
7729;SDS011;3908;52.310;7.230;2023-02-19T06:09:39;13.83;;;5.87;;
7729;SDS011;3908;52.310;7.230;2023-02-19T06:12:26;13.90;;;6.40;;
7729;SDS011;3908;52.310;7.230;2023-02-19T06:15:15;11.40;;;6.30;;
7729;SDS011;3908;52.310;7.230;2023-02-19T06:18:02;11.40;;;6.33;;
7729;SDS011;3908;52.310;7.230;2023-02-19T06:20:49;14.60;;;7.00;;
7729;SDS011;3908;52.310;7.230;2023-02-19T06:23:36;15.13;;;6.80;;
7729;SDS011;3908;52.310;7.230;2023-02-19T06:26:24;13.57;;;6.07;;
7729;SDS011;3908;52.310;7.230;2023-02-19T06:29:11;12.07;;;6.23;;
7729;SDS011;3908;52.310;7.230;2023-02-19T06:32:00;12.83;;;6.80;;
7729;SDS011;3908;52.310;7.230;2023-02-19T06:34:47;15.63;;;6.07;;
7729;SDS011;3908;52.310;7.230;2023-02-19T06:37:34;16.27;;;6.40;;
7729;SDS011;3908;52.310;7.230;2023-02-19T06:40:21;16.20;;;7.13;;
7729;SDS011;3908;52.310;7.230;2023-02-19T06:43:08;12.83;;;6.90;;
7729;SDS011;3908;52.310;7.230;2023-02-19T06:45:56;16.50;;;6.90;;
7729;SDS011;3908;52.310;7.230;2023-02-19T06:48:45;14.47;;;6.93;;
7729;SDS011;3908;52.310;7.230;2023-02-19T06:51:32;11.00;;;5.43;;
7729;SDS011;3908;52.310;7.230;2023-02-19T06:54:19;6.67;;;4.30;;
7729;SDS011;3908;52.310;7.230;2023-02-19T06:57:06;11.53;;;6.07;;
7729;SDS011;3908;52.310;7.230;2023-02-19T06:59:53;10.07;;;6.37;;
7729;SDS011;3908;52.310;7.230;2023-02-19T07:02:40;7.73;;;5.47;;
7729;SDS011;3908;52.310;7.230;2023-02-19T07:05:28;6.83;;;4.90;;
7729;SDS011;3908;52.310;7.230;2023-02-19T07:08:15;10.77;;;6.00;;
7729;SDS011;3908;52.310;7.230;2023-02-19T07:11:03;10.77;;;6.73;;
7729;SDS011;3908;52.310;7.230;2023-02-19T07:13:52;13.57;;;7.23;;
7729;SDS011;3908;52.310;7.230;2023-02-19T07:16:41;11.33;;;6.60;;
7729;SDS011;3908;52.310;7.230;2023-02-19T07:19:28;11.17;;;6.43;;
7729;SDS011;3908;52.310;7.230;2023-02-19T07:22:16;11.53;;;7.03;;
7729;SDS011;3908;52.310;7.230;2023-02-19T07:25:03;11.20;;;6.43;;
7729;SDS011;3908;52.310;7.230;2023-02-19T07:27:51;10.60;;;6.23;;
7729;SDS011;3908;52.310;7.230;2023-02-19T07:30:38;10.13;;;5.60;;
7729;SDS011;3908;52.310;7.230;2023-02-19T07:33:25;10.57;;;5.90;;
7729;SDS011;3908;52.310;7.230;2023-02-19T07:36:12;8.97;;;5.17;;
7729;SDS011;3908;52.310;7.230;2023-02-19T07:39:02;9.27;;;4.63;;
7729;SDS011;3908;52.310;7.230;2023-02-19T07:41:50;7.33;;;4.93;;
7729;SDS011;3908;52.310;7.230;2023-02-19T07:44:36;6.97;;;4.20;;
7729;SDS011;3908;52.310;7.230;2023-02-19T07:47:23;7.07;;;4.23;;
7729;SDS011;3908;52.310;7.230;2023-02-19T07:50:11;6.07;;;3.40;;
7729;SDS011;3908;52.310;7.230;2023-02-19T07:52:57;4.43;;;2.43;;
7729;SDS011;3908;52.310;7.230;2023-02-19T07:55:46;5.07;;;2.57;;
7729;SDS011;3908;52.310;7.230;2023-02-19T07:58:33;4.33;;;2.80;;
7729;SDS011;3908;52.310;7.230;2023-02-19T08:01:21;5.00;;;2.70;;
7729;SDS011;3908;52.310;7.230;2023-02-19T08:04:29;7.10;;;3.17;;
7729;SDS011;3908;52.310;7.230;2023-02-19T08:07:15;4.67;;;2.50;;
7729;SDS011;3908;52.310;7.230;2023-02-19T08:10:02;7.80;;;3.20;;
7729;SDS011;3908;52.310;7.230;2023-02-19T08:13:10;5.03;;;2.47;;
7729;SDS011;3908;52.310;7.230;2023-02-19T08:16:08;4.73;;;2.70;;
7729;SDS011;3908;52.310;7.230;2023-02-19T08:18:57;7.00;;;3.03;;
7729;SDS011;3908;52.310;7.230;2023-02-19T08:21:44;5.20;;;2.53;;
7729;SDS011;3908;52.310;7.230;2023-02-19T08:24:31;7.67;;;3.30;;
7729;SDS011;3908;52.310;7.230;2023-02-19T08:27:18;4.93;;;2.60;;
7729;SDS011;3908;52.310;7.230;2023-02-19T08:30:07;5.87;;;3.20;;
7729;SDS011;3908;52.310;7.230;2023-02-19T08:32:55;4.97;;;3.07;;
7729;SDS011;3908;52.310;7.230;2023-02-19T08:35:43;5.63;;;3.00;;
7729;SDS011;3908;52.310;7.230;2023-02-19T08:38:31;4.90;;;3.17;;
7729;SDS011;3908;52.310;7.230;2023-02-19T08:41:20;4.00;;;2.57;;
7729;SDS011;3908;52.310;7.230;2023-02-19T08:44:07;5.27;;;2.70;;
7729;SDS011;3908;52.310;7.230;2023-02-19T08:46:55;4.23;;;2.37;;
7729;SDS011;3908;52.310;7.230;2023-02-19T08:49:42;4.50;;;2.30;;
7729;SDS011;3908;52.310;7.230;2023-02-19T08:52:29;3.63;;;2.30;;
7729;SDS011;3908;52.310;7.230;2023-02-19T08:55:17;4.50;;;2.33;;
7729;SDS011;3908;52.310;7.230;2023-02-19T08:58:04;4.20;;;2.57;;
7729;SDS011;3908;52.310;7.230;2023-02-19T09:00:51;6.80;;;3.43;;
7729;SDS011;3908;52.310;7.230;2023-02-19T09:03:40;5.33;;;3.10;;
7729;SDS011;3908;52.310;7.230;2023-02-19T09:06:27;5.67;;;3.57;;
7729;SDS011;3908;52.310;7.230;2023-02-19T09:09:14;9.00;;;4.40;;
7729;SDS011;3908;52.310;7.230;2023-02-19T09:12:02;4.87;;;2.97;;
7729;SDS011;3908;52.310;7.230;2023-02-19T09:14:50;6.33;;;3.90;;
7729;SDS011;3908;52.310;7.230;2023-02-19T09:17:37;5.87;;;3.77;;
7729;SDS011;3908;52.310;7.230;2023-02-19T09:20:25;5.67;;;3.67;;
7729;SDS011;3908;52.310;7.230;2023-02-19T09:23:12;6.07;;;3.60;;
7729;SDS011;3908;52.310;7.230;2023-02-19T09:25:59;5.57;;;3.07;;
7729;SDS011;3908;52.310;7.230;2023-02-19T09:28:47;5.53;;;3.43;;
7729;SDS011;3908;52.310;7.230;2023-02-19T09:31:34;4.33;;;2.63;;
7729;SDS011;3908;52.310;7.230;2023-02-19T09:34:21;4.07;;;2.57;;
7729;SDS011;3908;52.310;7.230;2023-02-19T09:37:09;3.93;;;2.43;;
7729;SDS011;3908;52.310;7.230;2023-02-19T09:39:56;5.53;;;2.67;;
7729;SDS011;3908;52.310;7.230;2023-02-19T09:42:43;4.93;;;2.57;;
7729;SDS011;3908;52.310;7.230;2023-02-19T09:45:30;3.00;;;2.13;;
7729;SDS011;3908;52.310;7.230;2023-02-19T09:48:18;3.83;;;2.53;;
7729;SDS011;3908;52.310;7.230;2023-02-19T09:51:05;4.30;;;2.70;;
7729;SDS011;3908;52.310;7.230;2023-02-19T09:53:57;5.10;;;2.70;;
7729;SDS011;3908;52.310;7.230;2023-02-19T09:56:45;3.00;;;2.40;;
7729;SDS011;3908;52.310;7.230;2023-02-19T09:59:34;3.70;;;2.50;;
7729;SDS011;3908;52.310;7.230;2023-02-19T10:02:25;4.67;;;3.07;;
7729;SDS011;3908;52.310;7.230;2023-02-19T10:05:15;3.47;;;2.37;;
7729;SDS011;3908;52.310;7.230;2023-02-19T10:08:03;4.47;;;2.83;;
7729;SDS011;3908;52.310;7.230;2023-02-19T10:10:54;3.70;;;2.67;;
7729;SDS011;3908;52.310;7.230;2023-02-19T10:13:41;7.57;;;3.80;;
7729;SDS011;3908;52.310;7.230;2023-02-19T10:16:32;10.33;;;5.27;;
7729;SDS011;3908;52.310;7.230;2023-02-19T10:19:19;7.97;;;4.70;;
7729;SDS011;3908;52.310;7.230;2023-02-19T10:22:07;7.53;;;4.03;;
7729;SDS011;3908;52.310;7.230;2023-02-19T10:24:57;7.37;;;3.50;;
7729;SDS011;3908;52.310;7.230;2023-02-19T10:27:46;3.83;;;2.63;;
7729;SDS011;3908;52.310;7.230;2023-02-19T10:30:34;4.23;;;3.43;;
7729;SDS011;3908;52.310;7.230;2023-02-19T10:33:21;4.67;;;3.00;;
7729;SDS011;3908;52.310;7.230;2023-02-19T10:36:14;6.13;;;3.40;;
7729;SDS011;3908;52.310;7.230;2023-02-19T10:39:19;4.20;;;2.67;;
7729;SDS011;3908;52.310;7.230;2023-02-19T10:42:20;3.90;;;2.53;;
7729;SDS011;3908;52.310;7.230;2023-02-19T10:45:11;3.20;;;2.40;;
7729;SDS011;3908;52.310;7.230;2023-02-19T10:48:04;3.60;;;2.40;;
7729;SDS011;3908;52.310;7.230;2023-02-19T10:50:53;3.00;;;2.50;;
7729;SDS011;3908;52.310;7.230;2023-02-19T10:53:43;4.10;;;2.70;;
7729;SDS011;3908;52.310;7.230;2023-02-19T10:56:32;3.33;;;2.37;;
7729;SDS011;3908;52.310;7.230;2023-02-19T10:59:22;2.77;;;2.27;;
7729;SDS011;3908;52.310;7.230;2023-02-19T11:02:15;4.37;;;2.53;;
7729;SDS011;3908;52.310;7.230;2023-02-19T11:05:05;4.27;;;3.00;;
7729;SDS011;3908;52.310;7.230;2023-02-19T11:08:02;3.40;;;2.47;;
7729;SDS011;3908;52.310;7.230;2023-02-19T11:10:49;3.53;;;2.43;;
7729;SDS011;3908;52.310;7.230;2023-02-19T11:13:36;4.20;;;2.60;;
7729;SDS011;3908;52.310;7.230;2023-02-19T11:16:24;3.23;;;2.40;;
7729;SDS011;3908;52.310;7.230;2023-02-19T11:19:27;3.37;;;2.40;;
7729;SDS011;3908;52.310;7.230;2023-02-19T11:22:17;4.47;;;2.50;;
7729;SDS011;3908;52.310;7.230;2023-02-19T11:25:17;3.60;;;2.63;;
7729;SDS011;3908;52.310;7.230;2023-02-19T11:28:06;4.40;;;2.87;;
7729;SDS011;3908;52.310;7.230;2023-02-19T11:31:13;3.73;;;2.60;;
7729;SDS011;3908;52.310;7.230;2023-02-19T11:34:22;3.07;;;2.37;;
7729;SDS011;3908;52.310;7.230;2023-02-19T11:37:15;4.03;;;2.83;;
7729;SDS011;3908;52.310;7.230;2023-02-19T11:40:05;3.43;;;2.40;;
7729;SDS011;3908;52.310;7.230;2023-02-19T11:42:58;3.20;;;2.47;;
7729;SDS011;3908;52.310;7.230;2023-02-19T11:45:51;3.77;;;2.50;;
7729;SDS011;3908;52.310;7.230;2023-02-19T11:48:52;3.87;;;2.13;;
7729;SDS011;3908;52.310;7.230;2023-02-19T11:51:50;2.67;;;2.23;;
7729;SDS011;3908;52.310;7.230;2023-02-19T11:54:51;3.63;;;2.37;;
7729;SDS011;3908;52.310;7.230;2023-02-19T11:57:43;2.97;;;2.27;;
7729;SDS011;3908;52.310;7.230;2023-02-19T12:00:33;3.10;;;2.43;;
7729;SDS011;3908;52.310;7.230;2023-02-19T12:03:40;3.40;;;2.27;;
7729;SDS011;3908;52.310;7.230;2023-02-19T12:06:36;3.10;;;2.10;;
7729;SDS011;3908;52.310;7.230;2023-02-19T12:09:40;3.60;;;2.40;;
7729;SDS011;3908;52.310;7.230;2023-02-19T12:12:47;2.73;;;2.10;;
7729;SDS011;3908;52.310;7.230;2023-02-19T12:15:47;2.57;;;2.07;;
7729;SDS011;3908;52.310;7.230;2023-02-19T12:22:05;3.23;;;2.30;;
7729;SDS011;3908;52.310;7.230;2023-02-19T12:28:38;2.73;;;2.00;;
7729;SDS011;3908;52.310;7.230;2023-02-19T12:31:44;3.33;;;2.03;;
7729;SDS011;3908;52.310;7.230;2023-02-19T12:34:54;3.17;;;2.00;;
7729;SDS011;3908;52.310;7.230;2023-02-19T12:37:59;4.60;;;2.13;;
7729;SDS011;3908;52.310;7.230;2023-02-19T12:44:07;3.90;;;2.67;;
7729;SDS011;3908;52.310;7.230;2023-02-19T12:46:59;3.27;;;2.10;;
7729;SDS011;3908;52.310;7.230;2023-02-19T12:49:53;2.63;;;1.90;;
7729;SDS011;3908;52.310;7.230;2023-02-19T12:52:49;2.90;;;2.20;;
7729;SDS011;3908;52.310;7.230;2023-02-19T12:55:40;2.73;;;2.03;;
7729;SDS011;3908;52.310;7.230;2023-02-19T12:58:31;4.10;;;2.33;;
7729;SDS011;3908;52.310;7.230;2023-02-19T13:01:27;3.83;;;2.67;;
7729;SDS011;3908;52.310;7.230;2023-02-19T13:04:26;3.63;;;2.40;;
7729;SDS011;3908;52.310;7.230;2023-02-19T13:07:20;2.97;;;2.27;;
7729;SDS011;3908;52.310;7.230;2023-02-19T13:10:22;2.87;;;2.50;;
7729;SDS011;3908;52.310;7.230;2023-02-19T13:13:14;3.13;;;2.70;;
7729;SDS011;3908;52.310;7.230;2023-02-19T13:16:07;3.87;;;2.53;;
7729;SDS011;3908;52.310;7.230;2023-02-19T13:19:01;3.23;;;2.63;;
7729;SDS011;3908;52.310;7.230;2023-02-19T13:21:51;3.63;;;2.77;;
7729;SDS011;3908;52.310;7.230;2023-02-19T13:25:06;4.93;;;2.87;;
7729;SDS011;3908;52.310;7.230;2023-02-19T13:27:57;4.33;;;3.30;;
7729;SDS011;3908;52.310;7.230;2023-02-19T13:30:55;4.27;;;3.67;;
7729;SDS011;3908;52.310;7.230;2023-02-19T13:34:11;5.63;;;4.13;;
7729;SDS011;3908;52.310;7.230;2023-02-19T13:37:07;7.27;;;5.80;;
7729;SDS011;3908;52.310;7.230;2023-02-19T13:39:56;6.37;;;4.30;;
7729;SDS011;3908;52.310;7.230;2023-02-19T13:42:50;9.83;;;6.70;;
7729;SDS011;3908;52.310;7.230;2023-02-19T13:45:40;9.17;;;6.77;;
7729;SDS011;3908;52.310;7.230;2023-02-19T13:48:30;10.40;;;7.37;;
7729;SDS011;3908;52.310;7.230;2023-02-19T13:51:43;8.83;;;6.57;;
7729;SDS011;3908;52.310;7.230;2023-02-19T13:54:35;10.93;;;7.47;;
7729;SDS011;3908;52.310;7.230;2023-02-19T13:57:25;12.37;;;7.57;;
7729;SDS011;3908;52.310;7.230;2023-02-19T14:03:44;10.80;;;7.90;;
7729;SDS011;3908;52.310;7.230;2023-02-19T14:06:47;12.07;;;8.40;;
7729;SDS011;3908;52.310;7.230;2023-02-19T14:10:10;12.83;;;8.90;;
7729;SDS011;3908;52.310;7.230;2023-02-19T14:12:59;13.33;;;9.50;;
7729;SDS011;3908;52.310;7.230;2023-02-19T14:15:47;12.57;;;9.30;;
7729;SDS011;3908;52.310;7.230;2023-02-19T14:18:42;13.57;;;9.67;;
7729;SDS011;3908;52.310;7.230;2023-02-19T14:21:35;16.03;;;10.67;;
7729;SDS011;3908;52.310;7.230;2023-02-19T14:24:24;16.80;;;10.93;;
7729;SDS011;3908;52.310;7.230;2023-02-19T14:27:11;12.73;;;9.63;;
7729;SDS011;3908;52.310;7.230;2023-02-19T14:29:58;14.07;;;10.73;;
7729;SDS011;3908;52.310;7.230;2023-02-19T14:32:46;12.43;;;9.37;;
7729;SDS011;3908;52.310;7.230;2023-02-19T14:35:35;11.57;;;8.93;;
7729;SDS011;3908;52.310;7.230;2023-02-19T14:38:25;13.23;;;8.43;;
7729;SDS011;3908;52.310;7.230;2023-02-19T14:41:16;9.30;;;7.27;;
7729;SDS011;3908;52.310;7.230;2023-02-19T14:44:12;10.07;;;6.80;;
7729;SDS011;3908;52.310;7.230;2023-02-19T14:47:02;9.10;;;7.30;;
7729;SDS011;3908;52.310;7.230;2023-02-19T14:49:52;10.80;;;7.67;;
7729;SDS011;3908;52.310;7.230;2023-02-19T14:52:44;8.93;;;5.90;;
7729;SDS011;3908;52.310;7.230;2023-02-19T14:55:35;9.50;;;5.70;;
7729;SDS011;3908;52.310;7.230;2023-02-19T14:58:29;6.93;;;4.90;;
7729;SDS011;3908;52.310;7.230;2023-02-19T15:01:27;5.30;;;4.00;;
7729;SDS011;3908;52.310;7.230;2023-02-19T15:04:20;3.80;;;2.70;;
7729;SDS011;3908;52.310;7.230;2023-02-19T15:07:08;4.47;;;2.67;;
7729;SDS011;3908;52.310;7.230;2023-02-19T15:10:01;3.70;;;2.87;;
7729;SDS011;3908;52.310;7.230;2023-02-19T15:12:50;4.27;;;3.07;;
7729;SDS011;3908;52.310;7.230;2023-02-19T15:15:42;6.27;;;3.90;;
7729;SDS011;3908;52.310;7.230;2023-02-19T15:18:30;6.53;;;4.50;;
7729;SDS011;3908;52.310;7.230;2023-02-19T15:21:21;12.60;;;4.80;;
7729;SDS011;3908;52.310;7.230;2023-02-19T15:24:10;6.97;;;4.40;;
7729;SDS011;3908;52.310;7.230;2023-02-19T15:27:00;4.70;;;3.80;;
7729;SDS011;3908;52.310;7.230;2023-02-19T15:29:49;6.50;;;3.97;;
7729;SDS011;3908;52.310;7.230;2023-02-19T15:32:39;5.27;;;3.67;;
7729;SDS011;3908;52.310;7.230;2023-02-19T15:35:26;4.77;;;3.77;;
7729;SDS011;3908;52.310;7.230;2023-02-19T15:38:17;7.20;;;4.90;;
7729;SDS011;3908;52.310;7.230;2023-02-19T15:41:04;7.63;;;5.40;;
7729;SDS011;3908;52.310;7.230;2023-02-19T15:43:52;11.67;;;8.70;;
7729;SDS011;3908;52.310;7.230;2023-02-19T15:46:44;5.90;;;4.63;;
7729;SDS011;3908;52.310;7.230;2023-02-19T15:49:36;7.87;;;4.40;;
7729;SDS011;3908;52.310;7.230;2023-02-19T15:52:31;7.00;;;4.43;;
7729;SDS011;3908;52.310;7.230;2023-02-19T15:55:29;7.07;;;5.60;;
7729;SDS011;3908;52.310;7.230;2023-02-19T15:58:21;5.20;;;3.67;;
7729;SDS011;3908;52.310;7.230;2023-02-19T16:01:13;10.57;;;4.93;;
7729;SDS011;3908;52.310;7.230;2023-02-19T16:04:07;31.73;;;13.73;;
7729;SDS011;3908;52.310;7.230;2023-02-19T16:07:00;10.57;;;7.27;;
7729;SDS011;3908;52.310;7.230;2023-02-19T16:09:48;12.97;;;8.47;;
7729;SDS011;3908;52.310;7.230;2023-02-19T16:12:35;9.77;;;5.43;;
7729;SDS011;3908;52.310;7.230;2023-02-19T16:15:23;6.73;;;3.90;;
7729;SDS011;3908;52.310;7.230;2023-02-19T16:18:10;9.13;;;4.60;;
7729;SDS011;3908;52.310;7.230;2023-02-19T16:21:05;6.73;;;4.77;;
7729;SDS011;3908;52.310;7.230;2023-02-19T16:23:57;8.43;;;4.43;;
7729;SDS011;3908;52.310;7.230;2023-02-19T16:26:48;5.27;;;3.67;;
7729;SDS011;3908;52.310;7.230;2023-02-19T16:29:35;6.37;;;4.07;;
7729;SDS011;3908;52.310;7.230;2023-02-19T16:32:24;5.27;;;3.50;;
7729;SDS011;3908;52.310;7.230;2023-02-19T16:38:22;11.13;;;5.40;;
7729;SDS011;3908;52.310;7.230;2023-02-19T16:41:13;6.30;;;3.90;;
7729;SDS011;3908;52.310;7.230;2023-02-19T16:44:00;6.40;;;4.33;;
7729;SDS011;3908;52.310;7.230;2023-02-19T16:47:27;11.00;;;5.77;;
7729;SDS011;3908;52.310;7.230;2023-02-19T16:50:16;6.37;;;4.07;;
7729;SDS011;3908;52.310;7.230;2023-02-19T16:53:12;8.10;;;4.67;;
7729;SDS011;3908;52.310;7.230;2023-02-19T16:56:04;9.13;;;3.73;;
7729;SDS011;3908;52.310;7.230;2023-02-19T16:58:53;4.73;;;3.30;;
7729;SDS011;3908;52.310;7.230;2023-02-19T17:01:42;4.90;;;3.37;;
7729;SDS011;3908;52.310;7.230;2023-02-19T17:04:29;5.67;;;3.57;;
7729;SDS011;3908;52.310;7.230;2023-02-19T17:07:17;4.90;;;3.60;;
7729;SDS011;3908;52.310;7.230;2023-02-19T17:10:04;4.77;;;3.70;;
7729;SDS011;3908;52.310;7.230;2023-02-19T17:12:52;3.90;;;3.23;;
7729;SDS011;3908;52.310;7.230;2023-02-19T17:15:40;5.30;;;3.33;;
7729;SDS011;3908;52.310;7.230;2023-02-19T17:18:28;4.10;;;2.80;;
7729;SDS011;3908;52.310;7.230;2023-02-19T17:21:16;4.73;;;2.97;;
7729;SDS011;3908;52.310;7.230;2023-02-19T17:24:07;7.13;;;4.17;;
7729;SDS011;3908;52.310;7.230;2023-02-19T17:26:54;5.47;;;3.43;;
7729;SDS011;3908;52.310;7.230;2023-02-19T17:29:41;4.77;;;3.10;;
7729;SDS011;3908;52.310;7.230;2023-02-19T17:32:28;5.20;;;3.43;;
7729;SDS011;3908;52.310;7.230;2023-02-19T17:35:17;6.37;;;3.90;;
7729;SDS011;3908;52.310;7.230;2023-02-19T17:38:04;5.67;;;4.00;;
7729;SDS011;3908;52.310;7.230;2023-02-19T17:40:54;5.17;;;3.73;;
7729;SDS011;3908;52.310;7.230;2023-02-19T17:43:41;6.03;;;4.03;;
7729;SDS011;3908;52.310;7.230;2023-02-19T17:46:27;5.97;;;3.93;;
7729;SDS011;3908;52.310;7.230;2023-02-19T17:49:14;6.03;;;3.80;;